createdAt,value
2023-05-02T00:01:08.425Z,99.90
2023-05-02T00:03:36.038Z,99.90
2023-05-02T00:06:03.115Z,99.90
2023-05-02T00:08:30.832Z,99.90
2023-05-02T00:10:57.967Z,99.90
2023-05-02T00:13:25.246Z,99.90
2023-05-02T00:15:52.085Z,99.90
2023-05-02T00:18:19.815Z,99.90
2023-05-02T00:20:47.968Z,99.90
2023-05-02T00:23:14.967Z,99.90
2023-05-02T00:25:48.537Z,99.90
2023-05-02T00:28:15.619Z,99.90
2023-05-02T00:30:47.104Z,99.90
2023-05-02T00:33:16.132Z,99.90
2023-05-02T00:35:43.138Z,99.90
2023-05-02T00:38:12.893Z,99.90
2023-05-02T00:40:54.306Z,99.90
2023-05-02T00:43:21.890Z,99.90
2023-05-02T00:45:48.752Z,99.90
2023-05-02T00:48:18.289Z,99.90
2023-05-02T00:50:46.165Z,99.90
2023-05-02T00:53:12.932Z,99.90
2023-05-02T00:55:40.080Z,99.90
2023-05-02T00:58:12.106Z,99.90
2023-05-02T01:01:08.702Z,99.90
2023-05-02T01:03:40.549Z,99.90
2023-05-02T01:06:29.976Z,99.90
2023-05-02T01:09:11.941Z,99.90
2023-05-02T01:11:54.105Z,99.90
2023-05-02T01:14:25.416Z,99.90
2023-05-02T01:16:54.092Z,99.90
2023-05-02T01:19:36.078Z,99.90
2023-05-02T01:22:08.481Z,99.90
2023-05-02T01:24:54.385Z,99.90
2023-05-02T01:27:52.294Z,99.90
2023-05-02T01:30:22.140Z,99.90
2023-05-02T01:32:51.528Z,99.90
2023-05-02T01:35:19.829Z,99.90
2023-05-02T01:37:48.612Z,99.90
2023-05-02T01:40:22.113Z,99.90
2023-05-02T01:42:50.931Z,99.90
2023-05-02T01:45:21.524Z,99.90
2023-05-02T01:47:50.638Z,99.90
2023-05-02T01:50:25.262Z,99.90
2023-05-02T01:52:54.940Z,99.90
2023-05-02T01:55:24.374Z,99.90
2023-05-02T01:57:54.565Z,99.90
2023-05-02T02:00:25.728Z,99.90
2023-05-02T02:02:57.554Z,99.90
2023-05-02T02:05:25.997Z,99.90
2023-05-02T02:07:53.236Z,99.90
2023-05-02T02:10:20.951Z,99.90
2023-05-02T02:13:05.057Z,99.90
2023-05-02T02:15:38.824Z,99.90
2023-05-02T02:18:22.613Z,99.90
2023-05-02T02:20:52.174Z,99.90
2023-05-02T02:23:22.529Z,99.90
2023-05-02T02:25:51.717Z,99.90
2023-05-02T02:28:18.538Z,99.90
2023-05-02T02:30:46.346Z,99.90
2023-05-02T02:33:13.668Z,99.90
2023-05-02T02:35:48.558Z,99.90
2023-05-02T02:38:28.494Z,99.90
2023-05-02T02:41:06.940Z,99.90
2023-05-02T02:43:59.411Z,99.90
2023-05-02T02:46:49.467Z,99.90
2023-05-02T02:49:41.165Z,99.90
2023-05-02T02:52:16.980Z,99.90
2023-05-02T02:55:00.655Z,99.90
2023-05-02T02:58:14.788Z,99.90
2023-05-02T03:00:43.227Z,99.90
2023-05-02T03:03:12.455Z,99.90
2023-05-02T03:05:40.323Z,99.90
2023-05-02T03:08:08.265Z,99.90
2023-05-02T03:10:35.992Z,99.90
2023-05-02T03:13:03.519Z,99.90
2023-05-02T03:15:52.511Z,99.90
2023-05-02T03:18:20.227Z,99.90
2023-05-02T03:20:47.856Z,99.90
2023-05-02T03:23:14.873Z,99.90
2023-05-02T03:25:42.912Z,99.90
2023-05-02T03:28:11.787Z,99.90
2023-05-02T03:30:41.312Z,99.90
2023-05-02T03:33:09.329Z,99.90
2023-05-02T03:35:37.127Z,99.90
2023-05-02T03:38:04.134Z,99.90
2023-05-02T03:40:31.562Z,99.90
2023-05-02T03:42:58.560Z,99.90
2023-05-02T03:45:26.167Z,99.90
2023-05-02T03:47:53.699Z,99.90
2023-05-02T03:50:21.118Z,99.90
2023-05-02T03:52:48.827Z,99.90
2023-05-02T03:55:15.787Z,99.90
2023-05-02T03:57:45.838Z,99.90
2023-05-02T04:00:16.236Z,99.90
2023-05-02T04:02:43.914Z,99.90
2023-05-02T04:05:10.928Z,99.90
2023-05-02T04:07:38.838Z,99.90
2023-05-02T04:10:07.951Z,99.90
2023-05-02T04:12:35.240Z,99.90
2023-05-02T04:15:02.828Z,99.90
2023-05-02T04:17:30.043Z,99.90
2023-05-02T04:19:57.518Z,99.90
2023-05-02T04:22:26.881Z,99.90
2023-05-02T04:24:55.034Z,99.90
2023-05-02T04:27:22.590Z,99.90
2023-05-02T04:29:53.640Z,99.90
2023-05-02T04:32:22.033Z,99.90
2023-05-02T04:34:49.601Z,99.90
2023-05-02T04:37:17.690Z,99.90
2023-05-02T04:39:45.691Z,99.90
2023-05-02T04:42:13.486Z,99.90
2023-05-02T04:44:41.015Z,99.90
2023-05-02T04:47:08.721Z,99.90
2023-05-02T04:49:36.958Z,99.90
2023-05-02T04:52:04.731Z,99.90
2023-05-02T04:54:37.890Z,99.90
2023-05-02T04:57:07.593Z,99.90
2023-05-02T04:59:35.504Z,99.90
2023-05-02T05:02:05.648Z,99.90
2023-05-02T05:04:33.087Z,99.90
2023-05-02T05:07:00.561Z,99.90
2023-05-02T05:09:27.702Z,99.90
2023-05-02T05:11:54.987Z,99.90
2023-05-02T05:14:22.796Z,99.90
2023-05-02T05:16:50.650Z,99.90
2023-05-02T05:19:18.739Z,99.90
2023-05-02T05:21:46.514Z,99.90
2023-05-02T05:24:14.551Z,99.90
2023-05-02T05:26:42.123Z,99.90
2023-05-02T05:29:09.780Z,99.90
2023-05-02T05:31:37.762Z,99.90
2023-05-02T05:34:05.524Z,99.90
2023-05-02T05:36:33.468Z,99.90
2023-05-02T05:39:01.909Z,99.90
2023-05-02T05:41:29.401Z,99.90
2023-05-02T05:43:57.198Z,99.90
2023-05-02T05:46:24.168Z,99.90
2023-05-02T05:48:51.882Z,99.90
2023-05-02T05:51:18.837Z,99.90
2023-05-02T05:53:46.168Z,99.90
2023-05-02T05:56:14.103Z,99.90
2023-05-02T05:58:43.027Z,99.90
2023-05-02T06:01:09.822Z,99.90
2023-05-02T06:03:36.957Z,99.90
2023-05-02T06:06:04.011Z,99.90
2023-05-02T06:08:30.882Z,99.90
2023-05-02T06:10:57.736Z,99.90
2023-05-02T06:13:24.468Z,99.90
2023-05-02T06:15:51.615Z,99.90
2023-05-02T06:18:18.405Z,99.90
2023-05-02T06:20:45.170Z,99.90
2023-05-02T06:23:11.851Z,99.90
2023-05-02T06:25:39.082Z,99.90
2023-05-02T06:28:06.125Z,99.90
2023-05-02T06:30:32.956Z,99.90
2023-05-02T06:32:59.731Z,99.90
2023-05-02T06:35:26.525Z,99.90
2023-05-02T06:37:53.177Z,99.90
2023-05-02T06:40:19.914Z,99.90
2023-05-02T06:42:46.601Z,99.90
2023-05-02T06:45:13.328Z,99.90
2023-05-02T06:47:40.082Z,99.90
2023-05-02T06:50:07.586Z,99.90
2023-05-02T06:52:34.261Z,99.90
2023-05-02T06:55:00.972Z,99.90
2023-05-02T06:57:27.656Z,99.90
2023-05-02T06:59:54.496Z,99.90
2023-05-02T07:02:22.287Z,99.90
2023-05-02T07:04:49.016Z,99.90
2023-05-02T07:07:18.805Z,99.90
2023-05-02T07:09:45.934Z,99.90
2023-05-02T07:12:12.685Z,99.90
2023-05-02T07:14:39.551Z,99.90
2023-05-02T07:17:06.434Z,99.90
2023-05-02T07:19:33.317Z,99.90
2023-05-02T07:22:00.085Z,99.90
2023-05-02T07:24:26.899Z,99.90
2023-05-02T07:26:53.730Z,99.90
2023-05-02T07:29:20.443Z,99.90
2023-05-02T07:31:47.793Z,99.90
2023-05-02T07:34:14.618Z,99.90
2023-05-02T07:36:41.433Z,99.90
2023-05-02T07:39:08.191Z,99.90
2023-05-02T07:41:35.016Z,99.90
2023-05-02T07:44:01.935Z,99.90
2023-05-02T07:46:28.683Z,99.90
2023-05-02T07:48:55.967Z,99.90
2023-05-02T07:51:22.801Z,99.90
2023-05-02T07:53:53.661Z,99.90
2023-05-02T07:56:21.254Z,99.90
2023-05-02T07:58:48.072Z,99.90
2023-05-02T08:01:14.775Z,99.90
2023-05-02T08:03:41.832Z,99.90
2023-05-02T08:06:09.866Z,99.90
2023-05-02T08:08:37.303Z,99.90
2023-05-02T08:11:04.365Z,99.90
2023-05-02T08:13:31.083Z,99.90
2023-05-02T08:15:58.575Z,99.90
2023-05-02T08:18:25.890Z,99.90
2023-05-02T08:20:53.116Z,99.90
2023-05-02T08:23:19.799Z,99.90
2023-05-02T08:25:46.467Z,99.90
2023-05-02T08:28:13.390Z,99.90
2023-05-02T08:30:40.164Z,99.90
2023-05-02T08:33:07.041Z,99.90
2023-05-02T08:35:33.930Z,99.90
2023-05-02T08:38:00.702Z,99.90
2023-05-02T08:40:40.872Z,99.90
2023-05-02T08:43:11.700Z,99.90
2023-05-02T08:45:43.372Z,99.90
2023-05-02T08:48:12.160Z,99.90
2023-05-02T08:50:45.319Z,99.90
2023-05-02T08:53:14.368Z,99.90
2023-05-02T08:55:42.348Z,99.90
2023-05-02T08:58:10.735Z,99.90
2023-05-02T09:00:41.937Z,99.90
2023-05-02T09:03:29.034Z,99.90
2023-05-02T09:06:10.888Z,99.90
2023-05-02T09:08:37.739Z,99.90
2023-05-02T09:11:05.293Z,99.90
2023-05-02T09:13:32.895Z,99.90
2023-05-02T09:16:06.346Z,99.90
2023-05-02T09:18:37.443Z,99.90
2023-05-02T09:21:18.080Z,99.90
2023-05-02T09:23:48.962Z,99.90
2023-05-02T09:26:35.970Z,99.90
2023-05-02T09:29:05.093Z,99.90
2023-05-02T09:31:54.749Z,99.90
2023-05-02T09:34:22.670Z,99.90
2023-05-02T09:36:51.891Z,99.90
2023-05-02T09:39:23.035Z,99.90
2023-05-02T09:41:52.575Z,99.90
2023-05-02T09:44:24.405Z,99.90
2023-05-02T09:46:55.464Z,99.90
2023-05-02T09:49:40.350Z,99.90
2023-05-02T09:52:15.164Z,99.90
2023-05-02T09:54:42.433Z,99.90
2023-05-02T09:57:10.648Z,99.90
2023-05-02T09:59:37.521Z,99.90
2023-05-02T10:02:07.282Z,99.90
2023-05-02T10:04:34.905Z,99.90
2023-05-02T10:07:03.263Z,99.90
2023-05-02T10:09:32.743Z,99.90
2023-05-02T10:12:06.666Z,99.90
2023-05-02T10:14:43.679Z,99.90
2023-05-02T10:17:23.043Z,99.40
2023-05-02T10:20:06.722Z,98.40
2023-05-02T10:22:37.138Z,98.00
2023-05-02T10:25:05.085Z,96.20
2023-05-02T10:27:33.128Z,97.70
2023-05-02T10:30:02.330Z,93.30
2023-05-02T10:32:30.043Z,92.50
2023-05-02T10:35:05.293Z,88.60
2023-05-02T10:37:34.011Z,90.00
2023-05-02T10:40:01.297Z,92.10
2023-05-02T10:42:28.950Z,91.80
2023-05-02T10:44:55.848Z,91.90
2023-05-02T10:47:27.292Z,93.60
2023-05-02T10:50:02.278Z,94.70
2023-05-02T10:52:32.858Z,96.10
2023-05-02T10:55:24.990Z,96.00
2023-05-02T10:57:58.355Z,95.50
2023-05-02T11:00:30.727Z,97.10
2023-05-02T11:02:57.869Z,95.60
2023-05-02T11:05:25.975Z,93.30
2023-05-02T11:08:19.396Z,92.40
2023-05-02T11:10:47.959Z,91.00
2023-05-02T11:13:14.750Z,86.40
2023-05-02T11:15:41.483Z,84.00
2023-05-02T11:18:11.921Z,82.10
2023-05-02T11:20:45.787Z,76.70
2023-05-02T11:23:15.593Z,70.50
2023-05-02T11:25:47.576Z,71.30
2023-05-02T11:28:44.556Z,72.50
2023-05-02T11:31:29.612Z,69.60
2023-05-02T11:34:00.805Z,72.10
2023-05-02T11:36:34.955Z,71.00
2023-05-02T11:39:03.615Z,64.20
2023-05-02T11:41:40.605Z,63.10
2023-05-02T11:44:07.374Z,61.30
2023-05-02T11:46:37.241Z,61.00
2023-05-02T11:49:06.188Z,61.00
2023-05-02T11:51:34.770Z,58.20
2023-05-02T11:54:01.571Z,57.30
2023-05-02T11:56:28.422Z,57.20
2023-05-02T11:58:59.946Z,56.40
2023-05-02T12:01:27.362Z,54.90
2023-05-02T12:04:07.944Z,54.90
2023-05-02T12:06:35.742Z,49.10
2023-05-02T12:09:11.121Z,46.80
2023-05-02T12:11:38.683Z,44.20
2023-05-02T12:14:06.732Z,42.00
2023-05-02T12:16:33.857Z,40.00
2023-05-02T12:19:01.384Z,38.80
2023-05-02T12:21:33.123Z,38.30
2023-05-02T12:24:02.363Z,40.90
2023-05-02T12:26:33.644Z,40.10
2023-05-02T12:29:02.673Z,39.80
2023-05-02T12:31:31.387Z,39.80
2023-05-02T12:34:00.281Z,37.60
2023-05-02T12:36:31.055Z,36.00
2023-05-02T12:38:59.476Z,36.40
2023-05-02T12:41:43.765Z,35.60
2023-05-02T12:44:10.977Z,34.80
2023-05-02T12:46:38.640Z,34.60
2023-05-02T12:49:10.726Z,33.80
2023-05-02T12:51:39.806Z,33.30
2023-05-02T12:54:07.221Z,33.20
2023-05-02T12:56:40.733Z,32.80
2023-05-02T12:59:08.095Z,33.20
2023-05-02T13:01:36.273Z,32.40
2023-05-02T13:04:04.179Z,32.10
2023-05-02T13:06:31.711Z,31.80
2023-05-02T13:08:59.366Z,30.60
2023-05-02T13:11:26.652Z,31.50
2023-05-02T13:13:54.097Z,29.60
2023-05-02T13:16:24.254Z,30.10
2023-05-02T13:18:52.007Z,30.30
2023-05-02T13:21:19.200Z,29.50
2023-05-02T13:23:50.472Z,28.60
2023-05-02T13:26:18.014Z,28.40
2023-05-02T13:28:45.297Z,28.10
2023-05-02T13:31:12.426Z,28.70
2023-05-02T13:33:39.744Z,27.70
2023-05-02T13:36:07.344Z,27.70
2023-05-02T13:38:34.909Z,26.70
2023-05-02T13:41:02.147Z,25.80
2023-05-02T13:43:29.121Z,26.20
2023-05-02T13:45:56.482Z,26.40
2023-05-02T13:48:23.727Z,26.60
2023-05-02T13:50:51.378Z,26.60
2023-05-02T13:53:23.612Z,25.10
2023-05-02T13:55:51.041Z,21.80
2023-05-02T13:58:18.091Z,19.40
2023-05-02T14:00:48.746Z,20.10
2023-05-02T14:03:18.393Z,20.20
2023-05-02T14:05:45.713Z,21.50
2023-05-02T14:08:18.379Z,22.00
2023-05-02T14:10:45.978Z,22.00
2023-05-02T14:13:13.211Z,21.40
2023-05-02T14:15:40.488Z,21.70
2023-05-02T14:18:10.051Z,21.70
2023-05-02T14:20:37.691Z,21.80
2023-05-02T14:23:07.331Z,21.30
2023-05-02T14:25:36.500Z,21.90
2023-05-02T14:28:04.722Z,21.00
2023-05-02T14:30:32.078Z,20.50
2023-05-02T14:32:59.214Z,20.70
2023-05-02T14:35:26.950Z,21.10
2023-05-02T14:37:56.834Z,21.50
2023-05-02T14:40:24.140Z,21.30
2023-05-02T14:42:51.578Z,21.80
2023-05-02T14:45:19.003Z,20.90
2023-05-02T14:47:47.751Z,21.40
2023-05-02T14:50:14.999Z,21.60
2023-05-02T14:52:42.479Z,21.20
2023-05-02T14:55:09.740Z,19.90
2023-05-02T14:57:37.384Z,19.70
2023-05-02T15:00:08.943Z,20.00
2023-05-02T15:02:36.748Z,20.10
2023-05-02T15:05:05.923Z,19.60
2023-05-02T15:07:32.990Z,18.90
2023-05-02T15:10:03.583Z,18.70
2023-05-02T15:12:31.123Z,19.00
2023-05-02T15:14:58.662Z,19.80
2023-05-02T15:17:31.866Z,19.00
2023-05-02T15:19:59.352Z,19.60
2023-05-02T15:22:27.229Z,19.20
2023-05-02T15:24:54.675Z,19.10
2023-05-02T15:27:22.309Z,19.40
2023-05-02T15:29:49.532Z,18.10
2023-05-02T15:32:17.034Z,17.90
2023-05-02T15:34:44.914Z,17.80
2023-05-02T15:37:12.296Z,17.40
2023-05-02T15:39:40.088Z,17.50
2023-05-02T15:42:07.287Z,17.50
2023-05-02T15:44:37.711Z,17.80
2023-05-02T15:47:04.898Z,18.10
2023-05-02T15:49:33.473Z,18.60
2023-05-02T15:52:01.723Z,17.10
2023-05-02T15:54:29.053Z,17.70
2023-05-02T15:56:58.186Z,17.70
2023-05-02T15:59:24.988Z,17.70
2023-05-02T16:01:51.885Z,17.90
2023-05-02T16:04:18.956Z,17.80
2023-05-02T16:06:46.320Z,18.10
2023-05-02T16:09:13.155Z,17.70
2023-05-02T16:11:39.955Z,17.90
2023-05-02T16:14:06.662Z,18.50
2023-05-02T16:16:34.383Z,18.20
2023-05-02T16:19:01.216Z,18.40
2023-05-02T16:21:27.974Z,18.60
2023-05-02T16:23:55.132Z,18.70
2023-05-02T16:26:22.210Z,18.70
2023-05-02T16:28:49.109Z,18.90
2023-05-02T16:31:16.125Z,18.20
2023-05-02T16:33:43.119Z,18.80
2023-05-02T16:36:10.196Z,18.60
2023-05-02T16:38:36.896Z,18.30
2023-05-02T16:41:05.605Z,18.50
2023-05-02T16:43:32.868Z,18.50
2023-05-02T16:46:01.616Z,18.80
2023-05-02T16:48:29.252Z,18.60
2023-05-02T16:50:57.140Z,18.70
2023-05-02T16:53:24.481Z,18.50
2023-05-02T16:55:51.227Z,18.00
2023-05-02T16:58:18.048Z,17.80
2023-05-02T17:00:44.942Z,18.10
2023-05-02T17:03:12.421Z,18.20
2023-05-02T17:05:39.248Z,18.10
2023-05-02T17:08:06.048Z,18.00
2023-05-02T17:10:32.818Z,18.50
2023-05-02T17:12:59.751Z,18.00
2023-05-02T17:15:27.629Z,18.10
2023-05-02T17:17:54.433Z,17.90
2023-05-02T17:20:21.566Z,18.70
2023-05-02T17:22:48.379Z,18.40
2023-05-02T17:25:15.199Z,18.30
2023-05-02T17:27:42.075Z,18.50
2023-05-02T17:30:09.390Z,18.40
2023-05-02T17:32:37.660Z,18.70
2023-05-02T17:35:04.992Z,18.60
2023-05-02T17:37:32.800Z,18.70
2023-05-02T17:40:02.252Z,18.80
2023-05-02T17:42:29.325Z,18.30
2023-05-02T17:44:56.227Z,18.50
2023-05-02T17:47:23.008Z,18.80
2023-05-02T17:49:51.340Z,18.90
2023-05-02T17:52:18.086Z,19.30
2023-05-02T17:54:45.370Z,19.30
2023-05-02T17:57:14.505Z,19.30
2023-05-02T17:59:41.731Z,19.60
2023-05-02T18:02:10.255Z,19.50
2023-05-02T18:04:37.436Z,19.80
2023-05-02T18:07:05.872Z,20.10
2023-05-02T18:09:33.120Z,19.70
2023-05-02T18:12:04.338Z,20.30
2023-05-02T18:14:31.563Z,20.10
2023-05-02T18:16:58.517Z,20.50
2023-05-02T18:19:25.373Z,20.10
2023-05-02T18:21:52.613Z,20.20
2023-05-02T18:24:19.330Z,20.30
2023-05-02T18:26:48.577Z,20.30
2023-05-02T18:29:15.349Z,20.60
2023-05-02T18:31:42.610Z,20.40
2023-05-02T18:34:09.480Z,20.50
2023-05-02T18:36:36.249Z,20.40
2023-05-02T18:39:03.078Z,20.70
2023-05-02T18:41:29.887Z,20.80
2023-05-02T18:43:58.655Z,20.70
2023-05-02T18:46:26.833Z,20.90
2023-05-02T18:48:53.532Z,20.60
2023-05-02T18:51:20.256Z,21.10
2023-05-02T18:53:49.021Z,21.20
2023-05-02T18:56:15.755Z,21.00
2023-05-02T18:58:43.026Z,21.10
2023-05-02T19:01:16.657Z,21.60
2023-05-02T19:03:43.939Z,21.50
2023-05-02T19:06:11.317Z,21.70
2023-05-02T19:08:40.142Z,21.50
2023-05-02T19:11:07.300Z,21.90
2023-05-02T19:13:34.051Z,21.90
2023-05-02T19:16:01.257Z,21.90
2023-05-02T19:18:28.133Z,22.20
2023-05-02T19:20:54.977Z,22.30
2023-05-02T19:23:21.782Z,22.60
2023-05-02T19:25:49.072Z,22.70
2023-05-02T19:28:16.902Z,22.90
2023-05-02T19:30:44.764Z,23.00
2023-05-02T19:33:11.706Z,23.40
2023-05-02T19:35:38.864Z,23.50
2023-05-02T19:38:05.699Z,23.20
2023-05-02T19:40:32.536Z,23.30
2023-05-02T19:42:59.312Z,23.80
2023-05-02T19:45:26.416Z,24.20
2023-05-02T19:47:53.333Z,24.60
2023-05-02T19:50:20.071Z,24.70
2023-05-02T19:52:46.814Z,24.90
2023-05-02T19:55:13.761Z,25.40
2023-05-02T19:57:41.381Z,25.50
2023-05-02T20:00:08.636Z,26.00
2023-05-02T20:02:35.676Z,25.90
2023-05-02T20:05:02.497Z,26.10
2023-05-02T20:07:29.304Z,26.50
2023-05-02T20:09:56.285Z,26.80
2023-05-02T20:12:23.145Z,27.00
2023-05-02T20:14:49.822Z,27.60
2023-05-02T20:17:16.516Z,27.50
2023-05-02T20:19:45.349Z,27.60
2023-05-02T20:22:12.211Z,28.00
2023-05-02T20:24:38.961Z,28.30
2023-05-02T20:27:05.712Z,28.50
2023-05-02T20:29:32.431Z,28.50
2023-05-02T20:31:59.473Z,28.70
2023-05-02T20:34:26.872Z,28.70
2023-05-02T20:36:54.227Z,28.80
2023-05-02T20:39:21.730Z,29.10
2023-05-02T20:41:51.232Z,28.90
2023-05-02T20:44:18.720Z,29.10
2023-05-02T20:46:45.688Z,29.40
2023-05-02T20:49:12.557Z,29.40
2023-05-02T20:51:39.413Z,29.60
2023-05-02T20:54:06.286Z,29.70
2023-05-02T20:56:33.053Z,30.00
2023-05-02T20:58:59.770Z,30.90
2023-05-02T21:01:26.916Z,31.20
2023-05-02T21:03:53.873Z,32.30
2023-05-02T21:06:21.413Z,32.80
2023-05-02T21:08:48.518Z,33.10
2023-05-02T21:11:15.827Z,33.70
2023-05-02T21:13:43.351Z,34.20
2023-05-02T21:16:19.526Z,35.20
2023-05-02T21:18:47.168Z,35.20
2023-05-02T21:21:14.394Z,35.50
2023-05-02T21:23:41.121Z,36.30
2023-05-02T21:26:08.250Z,36.50
2023-05-02T21:28:35.044Z,36.20
2023-05-02T21:31:02.151Z,35.80
2023-05-02T21:33:28.985Z,36.30
2023-05-02T21:35:59.111Z,36.80
2023-05-02T21:38:26.475Z,37.10
2023-05-02T21:40:53.700Z,37.20
2023-05-02T21:43:20.852Z,38.50
2023-05-02T21:45:48.872Z,38.90
2023-05-02T21:48:17.061Z,38.10
2023-05-02T21:50:44.547Z,38.60
2023-05-02T21:53:11.687Z,37.90
2023-05-02T21:55:39.800Z,37.60
2023-05-02T21:58:08.473Z,37.90
2023-05-02T22:00:38.318Z,37.60
2023-05-02T22:03:11.474Z,38.10
2023-05-02T22:05:42.130Z,37.40
2023-05-02T22:08:11.493Z,37.80
2023-05-02T22:10:42.584Z,38.90
2023-05-02T22:13:14.241Z,38.30
2023-05-02T22:15:46.120Z,38.20
2023-05-02T22:18:14.138Z,38.30
2023-05-02T22:20:42.154Z,38.50
2023-05-02T22:23:09.553Z,38.90
2023-05-02T22:25:39.528Z,38.60
2023-05-02T22:28:07.226Z,38.70
2023-05-02T22:30:34.458Z,39.40
2023-05-02T22:33:03.159Z,40.50
2023-05-02T22:35:29.894Z,40.40
2023-05-02T22:37:59.831Z,41.30
2023-05-02T22:40:26.640Z,41.70
2023-05-02T22:42:53.359Z,42.90
2023-05-02T22:45:20.220Z,43.40
2023-05-02T22:47:47.012Z,43.80
2023-05-02T22:50:14.289Z,43.90
2023-05-02T22:52:42.083Z,44.30
2023-05-02T22:55:09.597Z,44.80
2023-05-02T22:57:37.154Z,45.10
2023-05-02T23:00:05.733Z,46.00
2023-05-02T23:02:32.865Z,45.90
2023-05-02T23:05:00.182Z,46.80
2023-05-02T23:07:27.169Z,47.90
2023-05-02T23:09:54.792Z,49.40
2023-05-02T23:12:22.319Z,50.80
2023-05-02T23:14:49.846Z,52.00
2023-05-02T23:17:17.773Z,53.80
2023-05-02T23:19:44.609Z,55.50
2023-05-02T23:22:14.456Z,56.30
2023-05-02T23:24:41.920Z,57.40
2023-05-02T23:27:08.823Z,59.50
2023-05-02T23:29:36.760Z,61.10
2023-05-02T23:32:04.782Z,63.30
2023-05-02T23:34:31.608Z,65.50
2023-05-02T23:36:59.185Z,66.60
2023-05-02T23:39:27.521Z,68.00
2023-05-02T23:41:54.681Z,68.10
2023-05-02T23:44:25.010Z,65.70
2023-05-02T23:46:53.399Z,64.60
2023-05-02T23:49:22.132Z,66.50
2023-05-02T23:51:48.898Z,64.20
2023-05-02T23:54:16.474Z,65.50
2023-05-02T23:56:44.843Z,65.90
2023-05-02T23:59:12.263Z,64.90
